createdAt,value
2023-10-11T00:00:37.008Z,12.99
2023-10-11T00:01:40.253Z,12.97
2023-10-11T00:02:45.382Z,12.96
2023-10-11T00:03:53.854Z,12.95
2023-10-11T00:04:56.353Z,12.94
2023-10-11T00:05:58.682Z,12.93
2023-10-11T00:07:01.856Z,12.93
2023-10-11T00:08:05.064Z,12.92
2023-10-11T00:09:13.731Z,12.92
2023-10-11T00:10:20.827Z,12.92
2023-10-11T00:11:28.902Z,12.92
2023-10-11T00:12:31.217Z,12.92
2023-10-11T00:13:36.765Z,12.93
2023-10-11T00:14:43.238Z,12.93
2023-10-11T00:15:51.426Z,12.94
2023-10-11T00:16:55.554Z,12.94
2023-10-11T00:17:57.974Z,12.94
2023-10-11T00:19:01.257Z,12.95
2023-10-11T00:20:12.924Z,12.95
2023-10-11T00:21:17.694Z,12.96
2023-10-11T00:22:20.377Z,12.97
2023-10-11T00:23:25.103Z,12.99
2023-10-11T00:24:29.963Z,13.00
2023-10-11T00:25:33.701Z,13.00
2023-10-11T00:26:39.195Z,13.01
2023-10-11T00:27:42.872Z,13.01
2023-10-11T00:28:46.344Z,13.01
2023-10-11T00:29:49.373Z,13.01
2023-10-11T00:30:58.255Z,13.00
2023-10-11T00:32:00.513Z,13.00
2023-10-11T00:33:06.965Z,12.99
2023-10-11T00:34:12.027Z,12.99
2023-10-11T00:35:20.652Z,12.98
2023-10-11T00:36:30.259Z,12.97
2023-10-11T00:37:33.363Z,12.96
2023-10-11T00:38:45.157Z,12.95
2023-10-11T00:39:48.475Z,12.94
2023-10-11T00:41:02.137Z,12.92
2023-10-11T00:42:05.431Z,12.90
2023-10-11T00:43:07.965Z,12.88
2023-10-11T00:44:11.161Z,12.86
2023-10-11T00:45:17.779Z,12.84
2023-10-11T00:46:23.640Z,12.83
2023-10-11T00:47:26.428Z,12.81
2023-10-11T00:48:30.930Z,12.80
2023-10-11T00:49:38.243Z,12.78
2023-10-11T00:50:40.682Z,12.76
2023-10-11T00:51:47.720Z,12.75
2023-10-11T00:52:51.275Z,12.75
2023-10-11T00:53:55.800Z,12.75
2023-10-11T00:54:58.135Z,12.75
2023-10-11T00:56:03.356Z,12.76
2023-10-11T00:57:07.236Z,12.76
2023-10-11T00:58:09.952Z,12.77
2023-10-11T00:59:17.879Z,12.78
2023-10-11T01:00:22.976Z,12.79
2023-10-11T01:01:26.695Z,12.79
2023-10-11T01:02:33.114Z,12.78
2023-10-11T01:03:36.728Z,12.78
2023-10-11T01:04:41.112Z,12.78
2023-10-11T01:05:47.276Z,12.78
2023-10-11T01:06:50.025Z,12.78
2023-10-11T01:07:55.248Z,12.78
2023-10-11T01:08:57.530Z,12.78
2023-10-11T01:10:00.804Z,12.78
2023-10-11T01:11:06.266Z,12.78
2023-10-11T01:12:09.495Z,12.77
2023-10-11T01:13:11.690Z,12.76
2023-10-11T01:14:14.792Z,12.75
2023-10-11T01:15:24.423Z,12.74
2023-10-11T01:16:27.995Z,12.74
2023-10-11T01:17:33.039Z,12.73
2023-10-11T01:18:36.439Z,12.74
2023-10-11T01:19:38.690Z,12.75
2023-10-11T01:20:43.824Z,12.75
2023-10-11T01:21:48.812Z,12.76
2023-10-11T01:22:51.978Z,12.77
2023-10-11T01:23:54.119Z,12.77
2023-10-11T01:24:59.656Z,12.77
2023-10-11T01:26:07.706Z,12.77
2023-10-11T01:27:14.826Z,12.77
2023-10-11T01:28:17.182Z,12.77
2023-10-11T01:29:20.680Z,12.77
2023-10-11T01:30:23.232Z,12.77
2023-10-11T01:31:28.753Z,12.77
2023-10-11T01:32:31.062Z,12.77
2023-10-11T01:33:34.407Z,12.77
2023-10-11T01:34:36.872Z,12.78
2023-10-11T01:35:40.947Z,12.80
2023-10-11T01:36:45.537Z,12.81
2023-10-11T01:37:49.825Z,12.83
2023-10-11T01:38:52.243Z,12.85
2023-10-11T01:39:55.483Z,12.86
2023-10-11T01:40:57.647Z,12.88
2023-10-11T01:42:01.170Z,12.89
2023-10-11T01:43:04.801Z,12.90
2023-10-11T01:44:08.389Z,12.91
2023-10-11T01:45:11.055Z,12.92
2023-10-11T01:46:18.718Z,12.93
2023-10-11T01:47:20.950Z,12.95
2023-10-11T01:48:24.131Z,12.96
2023-10-11T01:49:26.385Z,12.97
2023-10-11T01:50:29.836Z,12.98
2023-10-11T01:51:32.085Z,13.00
2023-10-11T01:52:36.082Z,13.02
2023-10-11T01:53:39.361Z,13.04
2023-10-11T01:54:41.660Z,13.07
2023-10-11T01:55:43.838Z,13.09
2023-10-11T01:56:47.423Z,13.11
2023-10-11T01:57:51.240Z,13.12
2023-10-11T01:58:58.048Z,13.13
2023-10-11T02:00:04.494Z,13.15
2023-10-11T02:01:08.732Z,13.16
2023-10-11T02:02:12.190Z,13.18
2023-10-11T02:03:15.519Z,13.20
2023-10-11T02:04:19.217Z,13.22
2023-10-11T02:05:23.729Z,13.23
2023-10-11T02:06:27.143Z,13.25
2023-10-11T02:07:32.826Z,13.26
2023-10-11T02:08:38.279Z,13.27
2023-10-11T02:09:44.605Z,13.28
2023-10-11T02:10:46.825Z,13.28
2023-10-11T02:11:53.709Z,13.29
2023-10-11T02:12:58.160Z,13.29
2023-10-11T02:14:01.589Z,13.29
2023-10-11T02:15:09.074Z,13.29
2023-10-11T02:16:15.920Z,13.30
2023-10-11T02:17:22.101Z,13.30
2023-10-11T02:18:26.401Z,13.29
2023-10-11T02:19:30.287Z,13.29
2023-10-11T02:20:33.770Z,13.29
2023-10-11T02:21:38.102Z,13.28
2023-10-11T02:22:45.405Z,13.29
2023-10-11T02:23:49.088Z,13.29
2023-10-11T02:24:53.159Z,13.29
2023-10-11T02:25:55.414Z,13.30
2023-10-11T02:26:59.758Z,13.31
2023-10-11T02:28:02.182Z,13.32
2023-10-11T02:29:11.581Z,13.32
2023-10-11T02:30:14.967Z,13.32
2023-10-11T02:31:22.118Z,13.33
2023-10-11T02:32:32.941Z,13.34
2023-10-11T02:33:36.915Z,13.35
2023-10-11T02:34:42.475Z,13.35
2023-10-11T02:35:56.664Z,13.35
2023-10-11T02:37:02.925Z,13.36
2023-10-11T02:38:10.647Z,13.36
2023-10-11T02:39:19.314Z,13.36
2023-10-11T02:40:25.168Z,13.36
2023-10-11T02:41:27.394Z,13.35
2023-10-11T02:42:30.565Z,13.34
2023-10-11T02:43:34.960Z,13.32
2023-10-11T02:44:41.382Z,13.30
2023-10-11T02:45:44.480Z,13.28
2023-10-11T02:46:47.639Z,13.26
2023-10-11T02:47:50.097Z,13.24
2023-10-11T02:49:05.657Z,13.22
2023-10-11T02:50:08.479Z,13.19
2023-10-11T02:51:18.653Z,13.15
2023-10-11T02:52:20.909Z,13.12
2023-10-11T02:53:23.128Z,13.10
2023-10-11T02:54:35.469Z,13.08
2023-10-11T02:55:39.616Z,13.06
2023-10-11T02:56:48.827Z,13.03
2023-10-11T02:58:06.580Z,13.02
2023-10-11T02:59:12.900Z,13.00
2023-10-11T03:00:22.844Z,12.99
2023-10-11T03:01:32.500Z,12.97
2023-10-11T03:02:40.044Z,12.96
2023-10-11T03:03:43.924Z,12.95
2023-10-11T03:04:46.216Z,12.95
2023-10-11T03:05:49.994Z,12.95
2023-10-11T03:06:52.193Z,12.94
2023-10-11T03:07:56.452Z,12.94
2023-10-11T03:08:59.616Z,12.95
2023-10-11T03:10:04.640Z,12.95
2023-10-11T03:11:09.683Z,12.95
2023-10-11T03:12:19.746Z,12.95
2023-10-11T03:13:30.881Z,12.96
2023-10-11T03:14:42.070Z,12.97
2023-10-11T03:15:45.657Z,12.99
2023-10-11T03:16:57.076Z,13.01
2023-10-11T03:18:06.472Z,13.04
2023-10-11T03:19:11.339Z,13.06
2023-10-11T03:20:37.556Z,13.09
2023-10-11T03:21:40.442Z,13.12
2023-10-11T03:22:47.150Z,13.14
2023-10-11T03:23:50.623Z,13.16
2023-10-11T03:25:00.969Z,13.17
2023-10-11T03:26:09.849Z,13.19
2023-10-11T03:27:14.877Z,13.20
2023-10-11T03:28:22.525Z,13.21
2023-10-11T03:29:25.693Z,13.22
2023-10-11T03:30:28.089Z,13.22
2023-10-11T03:31:33.154Z,13.21
2023-10-11T03:32:39.258Z,13.21
2023-10-11T03:33:42.020Z,13.20
2023-10-11T03:34:45.198Z,13.19
2023-10-11T03:35:47.376Z,13.18
2023-10-11T03:36:53.753Z,13.17
2023-10-11T03:37:59.123Z,13.15
2023-10-11T03:39:10.343Z,13.14
2023-10-11T03:40:28.432Z,13.12
2023-10-11T03:41:32.999Z,13.11
2023-10-11T03:42:51.625Z,13.10
2023-10-11T03:43:55.979Z,13.08
2023-10-11T03:45:00.421Z,13.07
2023-10-11T03:46:05.281Z,13.07
2023-10-11T03:47:10.195Z,13.06
2023-10-11T03:48:13.029Z,13.06
2023-10-11T03:49:36.862Z,13.06
2023-10-11T03:50:48.714Z,13.06
2023-10-11T03:51:52.310Z,13.05
2023-10-11T03:53:07.743Z,13.04
2023-10-11T03:54:14.488Z,13.04
2023-10-11T03:55:16.892Z,13.03
2023-10-11T03:56:20.021Z,13.03
2023-10-11T03:57:24.028Z,13.02
2023-10-11T03:58:38.746Z,13.01
2023-10-11T03:59:48.639Z,13.00
2023-10-11T04:00:52.584Z,12.99
2023-10-11T04:01:55.152Z,12.99
2023-10-11T04:02:59.411Z,12.98
2023-10-11T04:04:01.939Z,12.97
2023-10-11T04:05:05.652Z,12.97
2023-10-11T04:06:15.272Z,12.96
2023-10-11T04:07:24.112Z,12.96
2023-10-11T04:08:26.421Z,12.95
2023-10-11T04:09:38.643Z,12.94
2023-10-11T04:10:41.685Z,12.94
2023-10-11T04:11:56.900Z,12.93
2023-10-11T04:13:00.609Z,12.92
2023-10-11T04:14:03.764Z,12.92
2023-10-11T04:15:13.997Z,12.91
2023-10-11T04:16:18.996Z,12.90
2023-10-11T04:17:27.694Z,12.89
2023-10-11T04:18:38.602Z,12.88
2023-10-11T04:19:41.634Z,12.87
2023-10-11T04:21:00.216Z,12.85
2023-10-11T04:22:13.624Z,12.84
2023-10-11T04:23:16.967Z,12.83
2023-10-11T04:24:21.041Z,12.82
2023-10-11T04:25:26.672Z,12.81
2023-10-11T04:26:34.786Z,12.80
2023-10-11T04:27:54.457Z,12.80
2023-10-11T04:29:07.485Z,12.79
2023-10-11T04:30:25.017Z,12.79
2023-10-11T04:31:31.165Z,12.79
2023-10-11T04:32:43.582Z,12.78
2023-10-11T04:33:52.143Z,12.77
2023-10-11T04:34:57.434Z,12.76
2023-10-11T04:35:59.800Z,12.73
2023-10-11T04:37:08.078Z,12.71
2023-10-11T04:38:12.745Z,12.69
2023-10-11T04:39:18.458Z,12.66
2023-10-11T04:40:24.853Z,12.63
2023-10-11T04:41:37.821Z,12.61
2023-10-11T04:42:40.353Z,12.57
2023-10-11T04:43:51.527Z,12.53
2023-10-11T04:44:56.196Z,12.50
2023-10-11T04:46:01.352Z,12.48
2023-10-11T04:47:03.666Z,12.45
2023-10-11T04:48:06.884Z,12.42
2023-10-11T04:49:20.218Z,12.40
2023-10-11T04:50:24.376Z,12.38
2023-10-11T04:51:30.269Z,12.35
2023-10-11T04:52:38.165Z,12.32
2023-10-11T04:53:55.763Z,12.29
2023-10-11T04:54:58.256Z,12.27
2023-10-11T04:56:06.210Z,12.25
2023-10-11T04:57:08.822Z,12.22
2023-10-11T04:58:15.204Z,12.19
2023-10-11T04:59:21.581Z,12.16
2023-10-11T05:00:32.429Z,12.14
2023-10-11T05:01:59.262Z,12.12
2023-10-11T05:03:04.405Z,12.09
2023-10-11T05:04:13.659Z,12.06
2023-10-11T05:05:20.619Z,12.03
2023-10-11T05:06:32.153Z,12.00
2023-10-11T05:07:35.302Z,11.98
2023-10-11T05:08:52.700Z,11.97
2023-10-11T05:10:01.159Z,11.97
2023-10-11T05:11:05.093Z,11.97
2023-10-11T05:12:14.164Z,11.97
2023-10-11T05:13:17.164Z,11.96
2023-10-11T05:14:30.352Z,11.96
2023-10-11T05:15:43.955Z,11.95
2023-10-11T05:16:50.342Z,11.94
2023-10-11T05:18:00.361Z,11.94
2023-10-11T05:19:06.828Z,11.95
2023-10-11T05:20:45.862Z,11.96
2023-10-11T05:22:03.421Z,11.97
2023-10-11T05:23:06.822Z,11.95
2023-10-11T05:24:35.014Z,11.93
2023-10-11T05:25:55.552Z,11.92
2023-10-11T05:27:26.623Z,11.91
2023-10-11T05:28:45.178Z,11.90
2023-10-11T05:30:02.527Z,11.90
2023-10-11T05:31:23.424Z,11.90
2023-10-11T05:32:33.553Z,11.90
2023-10-11T05:33:46.787Z,11.91
2023-10-11T05:34:52.547Z,11.91
2023-10-11T05:36:15.522Z,11.93
2023-10-11T05:37:36.912Z,11.97
2023-10-11T05:38:57.451Z,11.99
2023-10-11T05:40:17.990Z,12.02
2023-10-11T05:41:38.669Z,12.04
2023-10-11T05:42:59.164Z,12.07
2023-10-11T05:44:20.529Z,12.11
2023-10-11T05:45:41.016Z,12.16
2023-10-11T05:47:03.360Z,12.21
2023-10-11T05:48:24.374Z,12.25
2023-10-11T05:49:41.571Z,12.28
2023-10-11T05:50:56.205Z,12.30
2023-10-11T05:51:59.133Z,12.34
2023-10-11T05:53:02.663Z,12.37
2023-10-11T05:54:05.352Z,12.40
2023-10-11T05:55:09.206Z,12.44
2023-10-11T05:56:13.685Z,12.47
2023-10-11T05:57:19.879Z,12.49
2023-10-11T05:58:22.222Z,12.52
2023-10-11T05:59:25.937Z,12.55
2023-10-11T06:00:28.414Z,12.58
2023-10-11T06:01:35.406Z,12.62
2023-10-11T06:02:39.460Z,12.67
2023-10-11T06:03:42.779Z,12.71
2023-10-11T06:04:45.294Z,12.75
2023-10-11T06:05:52.712Z,12.78
2023-10-11T06:06:59.971Z,12.82
2023-10-11T06:08:02.411Z,12.85
2023-10-11T06:09:06.602Z,12.87
2023-10-11T06:10:15.025Z,12.88
2023-10-11T06:11:19.812Z,12.90
2023-10-11T06:12:26.154Z,12.92
2023-10-11T06:13:30.229Z,12.94
2023-10-11T06:14:32.522Z,12.95
2023-10-11T06:15:37.342Z,12.97
2023-10-11T06:16:39.975Z,12.98
2023-10-11T06:17:49.567Z,12.99
2023-10-11T06:18:57.501Z,13.00
2023-10-11T06:20:18.519Z,13.01
2023-10-11T06:21:25.601Z,13.01
2023-10-11T06:22:30.243Z,13.01
2023-10-11T06:23:33.963Z,13.02
2023-10-11T06:24:38.423Z,13.02
2023-10-11T06:25:58.528Z,13.03
2023-10-11T06:27:33.762Z,13.03
2023-10-11T06:28:35.986Z,13.04
2023-10-11T06:29:39.228Z,13.05
2023-10-11T06:30:43.904Z,13.06
2023-10-11T06:31:46.525Z,13.08
2023-10-11T06:32:52.060Z,13.10
2023-10-11T06:33:55.880Z,13.12
2023-10-11T06:34:59.221Z,13.15
2023-10-11T06:36:01.483Z,13.17
2023-10-11T06:37:07.985Z,13.19
2023-10-11T06:38:11.146Z,13.22
2023-10-11T06:39:35.166Z,13.24
2023-10-11T06:40:41.261Z,13.26
2023-10-11T06:41:51.803Z,13.28
2023-10-11T06:42:58.497Z,13.30
2023-10-11T06:44:02.213Z,13.31
2023-10-11T06:45:06.886Z,13.33
2023-10-11T06:46:09.335Z,13.35
2023-10-11T06:47:13.367Z,13.37
2023-10-11T06:48:17.188Z,13.39
2023-10-11T06:49:20.721Z,13.41
2023-10-11T06:50:25.728Z,13.42
2023-10-11T06:51:29.221Z,13.44
2023-10-11T06:52:32.367Z,13.45
2023-10-11T06:53:36.642Z,13.47
2023-10-11T06:54:39.409Z,13.48
2023-10-11T06:55:49.223Z,13.50
2023-10-11T06:56:51.772Z,13.52
2023-10-11T06:57:56.594Z,13.57
2023-10-11T06:59:01.299Z,13.63
2023-10-11T07:00:13.653Z,13.64
2023-10-11T07:01:17.050Z,13.67
2023-10-11T07:02:19.288Z,13.69
2023-10-11T07:03:28.605Z,13.71
2023-10-11T07:04:37.939Z,13.73
2023-10-11T07:05:47.433Z,13.75
2023-10-11T07:06:51.301Z,13.78
2023-10-11T07:07:56.811Z,13.81
2023-10-11T07:09:06.534Z,13.85
2023-10-11T07:10:29.284Z,13.89
2023-10-11T07:11:52.007Z,13.93
2023-10-11T07:13:06.128Z,13.97
2023-10-11T07:14:15.924Z,14.00
2023-10-11T07:15:22.087Z,14.04
2023-10-11T07:16:28.666Z,14.07
2023-10-11T07:17:33.453Z,14.10
2023-10-11T07:18:41.398Z,14.12
2023-10-11T07:19:44.988Z,14.16
2023-10-11T07:21:05.191Z,14.18
2023-10-11T07:22:09.099Z,14.21
2023-10-11T07:23:19.984Z,14.24
2023-10-11T07:24:34.264Z,14.26
2023-10-11T07:25:39.168Z,14.28
2023-10-11T07:26:50.522Z,14.31
2023-10-11T07:27:55.030Z,14.33
2023-10-11T07:29:00.257Z,14.34
2023-10-11T07:30:19.190Z,14.35
2023-10-11T07:31:24.086Z,14.37
2023-10-11T07:32:28.719Z,14.39
2023-10-11T07:33:31.960Z,14.41
2023-10-11T07:34:37.051Z,14.43
2023-10-11T07:35:48.117Z,14.46
2023-10-11T07:36:51.693Z,14.49
2023-10-11T07:37:54.232Z,14.51
2023-10-11T07:38:57.903Z,14.54
2023-10-11T07:40:11.014Z,14.56
2023-10-11T07:41:19.769Z,14.59
2023-10-11T07:42:27.566Z,14.61
2023-10-11T07:43:33.576Z,14.62
2023-10-11T07:44:40.374Z,14.65
2023-10-11T07:45:48.865Z,14.68
2023-10-11T07:46:56.116Z,14.70
2023-10-11T07:48:10.685Z,14.72
2023-10-11T07:49:17.240Z,14.75
2023-10-11T07:50:24.566Z,14.77
2023-10-11T07:51:30.607Z,14.79
2023-10-11T07:52:35.336Z,14.81
2023-10-11T07:53:39.721Z,14.84
2023-10-11T07:54:44.508Z,14.86
2023-10-11T07:55:46.748Z,14.88
2023-10-11T07:56:53.190Z,14.91
2023-10-11T07:58:01.959Z,14.94
2023-10-11T07:59:09.703Z,14.97
2023-10-11T08:00:18.615Z,15.01
2023-10-11T08:01:32.122Z,15.03
2023-10-11T08:02:43.476Z,15.07
2023-10-11T08:03:47.385Z,15.11
2023-10-11T08:04:50.109Z,15.14
2023-10-11T08:05:55.007Z,15.18
2023-10-11T08:07:10.155Z,15.22
2023-10-11T08:08:14.567Z,15.24
2023-10-11T08:09:20.915Z,15.28
2023-10-11T08:10:36.064Z,15.31
2023-10-11T08:11:46.312Z,15.35
2023-10-11T08:12:49.450Z,15.39
2023-10-11T08:13:51.827Z,15.43
2023-10-11T08:14:58.290Z,15.47
2023-10-11T08:16:06.517Z,15.50
2023-10-11T08:17:11.923Z,15.52
2023-10-11T08:18:17.428Z,15.55
2023-10-11T08:19:21.036Z,15.58
2023-10-11T08:20:30.878Z,15.61
2023-10-11T08:21:35.497Z,15.63
2023-10-11T08:22:37.737Z,15.65
2023-10-11T08:23:44.587Z,15.68
2023-10-11T08:24:50.001Z,15.72
2023-10-11T08:25:53.530Z,15.77
2023-10-11T08:27:06.752Z,15.80
2023-10-11T08:28:16.774Z,15.84
2023-10-11T08:29:31.742Z,15.89
2023-10-11T08:30:40.710Z,15.93
2023-10-11T08:31:45.337Z,15.97
2023-10-11T08:32:50.059Z,16.01
2023-10-11T08:33:54.825Z,16.05
2023-10-11T08:34:58.034Z,16.10
2023-10-11T08:36:00.449Z,16.13
2023-10-11T08:37:10.922Z,16.15
2023-10-11T08:38:20.597Z,16.19
2023-10-11T08:39:36.853Z,16.23
2023-10-11T08:40:44.892Z,16.29
2023-10-11T08:41:48.534Z,16.35
2023-10-11T08:42:59.848Z,16.42
2023-10-11T08:44:09.960Z,16.49
2023-10-11T08:45:16.012Z,16.54
2023-10-11T08:46:20.002Z,16.60
2023-10-11T08:47:22.575Z,16.66
2023-10-11T08:48:25.617Z,16.74
2023-10-11T08:49:28.976Z,16.85
2023-10-11T08:50:33.525Z,16.95
2023-10-11T08:51:45.057Z,17.05
2023-10-11T08:52:48.726Z,17.14
2023-10-11T08:53:55.875Z,17.23
2023-10-11T08:55:00.237Z,17.31
2023-10-11T08:56:04.172Z,17.38
2023-10-11T08:57:07.924Z,17.45
2023-10-11T08:58:13.965Z,17.52
2023-10-11T08:59:16.929Z,17.59
2023-10-11T09:00:30.528Z,17.64
2023-10-11T09:01:39.302Z,17.70
2023-10-11T09:02:49.742Z,17.76
2023-10-11T09:04:07.061Z,17.82
2023-10-11T09:05:30.240Z,17.88
2023-10-11T09:06:36.136Z,17.96
2023-10-11T09:07:46.398Z,18.02
2023-10-11T09:08:50.428Z,18.08
2023-10-11T09:09:56.254Z,18.12
2023-10-11T09:11:23.770Z,18.16
2023-10-11T09:12:27.644Z,18.23
2023-10-11T09:13:30.250Z,18.28
2023-10-11T09:14:35.747Z,18.34
2023-10-11T09:15:42.360Z,18.42
2023-10-11T09:16:46.732Z,18.47
2023-10-11T09:17:52.002Z,18.51
2023-10-11T09:19:06.726Z,18.56
2023-10-11T09:20:16.570Z,18.60
2023-10-11T09:21:20.458Z,18.63
2023-10-11T09:22:25.510Z,18.65
2023-10-11T09:23:38.509Z,18.68
2023-10-11T09:24:46.345Z,18.70
2023-10-11T09:25:59.696Z,18.73
2023-10-11T09:27:19.713Z,18.76
2023-10-11T09:28:23.391Z,18.78
2023-10-11T09:29:26.598Z,18.78
2023-10-11T09:30:32.757Z,18.78
2023-10-11T09:31:59.120Z,18.79
2023-10-11T09:33:16.937Z,18.80
2023-10-11T09:34:20.296Z,18.82
2023-10-11T09:35:27.997Z,18.82
2023-10-11T09:36:30.548Z,18.82
2023-10-11T09:37:35.827Z,18.83
2023-10-11T09:38:41.202Z,18.88
2023-10-11T09:39:46.129Z,18.92
2023-10-11T09:40:48.823Z,18.97
2023-10-11T09:41:55.592Z,19.03
2023-10-11T09:43:02.402Z,19.10
2023-10-11T09:44:11.888Z,19.19
2023-10-11T09:45:18.967Z,19.28
2023-10-11T09:46:30.448Z,19.33
2023-10-11T09:47:35.763Z,19.38
2023-10-11T09:48:39.892Z,19.41
2023-10-11T09:49:43.294Z,19.46
2023-10-11T09:50:46.767Z,19.51
2023-10-11T09:51:49.786Z,19.56
2023-10-11T09:52:55.320Z,19.60
2023-10-11T09:54:03.707Z,19.66
2023-10-11T09:55:18.801Z,19.72
2023-10-11T09:56:33.357Z,19.78
2023-10-11T09:57:51.500Z,19.85
2023-10-11T09:59:07.775Z,19.92
2023-10-11T10:00:18.520Z,19.97
2023-10-11T10:01:28.241Z,20.03
2023-10-11T10:02:36.398Z,20.08
2023-10-11T10:03:46.683Z,20.15
2023-10-11T10:05:06.019Z,20.19
2023-10-11T10:06:20.086Z,20.22
2023-10-11T10:07:28.438Z,20.24
2023-10-11T10:08:30.659Z,20.29
2023-10-11T10:09:57.308Z,20.33
2023-10-11T10:11:03.569Z,20.39
2023-10-11T10:12:24.110Z,20.45
2023-10-11T10:13:27.673Z,20.52
2023-10-11T10:14:31.628Z,20.56
2023-10-11T10:15:48.829Z,20.58
2023-10-11T10:17:12.354Z,20.62
2023-10-11T10:18:21.125Z,20.66
2023-10-11T10:19:26.882Z,20.70
2023-10-11T10:20:45.805Z,20.73
2023-10-11T10:22:12.320Z,20.75
2023-10-11T10:23:31.155Z,20.78
2023-10-11T10:24:33.505Z,20.80
2023-10-11T10:25:36.828Z,20.83
2023-10-11T10:26:41.055Z,20.84
2023-10-11T10:27:46.864Z,20.87
2023-10-11T10:28:55.036Z,20.90
2023-10-11T10:30:01.707Z,20.94
2023-10-11T10:31:10.946Z,20.96
2023-10-11T10:32:18.264Z,20.99
2023-10-11T10:33:24.257Z,21.03
2023-10-11T10:34:31.268Z,21.07
2023-10-11T10:35:39.195Z,21.11
2023-10-11T10:36:42.268Z,21.15
2023-10-11T10:37:57.237Z,21.18
2023-10-11T10:39:34.075Z,21.21
2023-10-11T10:40:40.848Z,21.25
2023-10-11T10:41:46.175Z,21.22
2023-10-11T10:43:15.541Z,21.27
2023-10-11T10:44:19.261Z,21.31
2023-10-11T10:45:26.817Z,21.33
2023-10-11T10:46:29.282Z,21.34
2023-10-11T10:47:34.206Z,21.34
2023-10-11T10:48:41.365Z,21.36
2023-10-11T10:49:44.179Z,21.38
2023-10-11T10:50:53.364Z,21.40
2023-10-11T10:51:58.549Z,21.43
2023-10-11T10:53:01.084Z,21.45
2023-10-11T10:54:08.188Z,21.46
2023-10-11T10:55:11.829Z,21.48
2023-10-11T10:56:23.538Z,21.51
2023-10-11T10:57:27.929Z,21.53
2023-10-11T10:58:31.303Z,21.54
2023-10-11T10:59:33.752Z,21.54
2023-10-11T11:00:40.259Z,21.54
2023-10-11T11:01:46.142Z,21.53
2023-10-11T11:02:48.852Z,21.52
2023-10-11T11:03:58.327Z,21.50
2023-10-11T11:05:02.470Z,21.49
2023-10-11T11:06:05.277Z,21.49
2023-10-11T11:07:07.561Z,21.49
2023-10-11T11:08:17.545Z,21.49
2023-10-11T11:09:21.063Z,21.50
2023-10-11T11:10:23.501Z,21.48
2023-10-11T11:11:28.204Z,21.48
2023-10-11T11:12:32.807Z,21.50
2023-10-11T11:13:35.306Z,21.51
2023-10-11T11:14:38.602Z,21.52
2023-10-11T11:15:45.408Z,21.54
2023-10-11T11:16:56.055Z,21.55
2023-10-11T11:18:02.903Z,21.56
2023-10-11T11:19:12.007Z,21.56
2023-10-11T11:20:16.272Z,21.56
2023-10-11T11:21:24.735Z,21.56
2023-10-11T11:22:39.288Z,21.56
2023-10-11T11:23:43.423Z,21.55
2023-10-11T11:24:45.976Z,21.55
2023-10-11T11:25:53.894Z,21.55
2023-10-11T11:26:56.202Z,21.55
2023-10-11T11:28:19.751Z,21.57
2023-10-11T11:29:32.785Z,21.59
2023-10-11T11:30:35.750Z,21.61
2023-10-11T11:31:53.457Z,21.63
2023-10-11T11:32:57.282Z,21.66
2023-10-11T11:34:13.182Z,21.69
2023-10-11T11:35:29.683Z,21.74
2023-10-11T11:36:33.134Z,21.79
2023-10-11T11:37:39.935Z,21.84
2023-10-11T11:38:47.524Z,21.87
2023-10-11T11:39:51.828Z,21.89
2023-10-11T11:41:14.639Z,21.91
2023-10-11T11:42:21.526Z,21.96
2023-10-11T11:43:33.436Z,22.00
2023-10-11T11:44:36.856Z,22.02
2023-10-11T11:45:38.992Z,22.03
2023-10-11T11:46:41.286Z,22.06
2023-10-11T11:47:54.869Z,22.08
2023-10-11T11:49:01.318Z,22.11
2023-10-11T11:50:07.154Z,22.13
2023-10-11T11:51:15.212Z,22.15
2023-10-11T11:52:19.152Z,22.17
2023-10-11T11:53:21.403Z,22.19
2023-10-11T11:54:28.536Z,22.23
2023-10-11T11:55:33.212Z,22.26
2023-10-11T11:56:35.615Z,22.28
2023-10-11T11:57:38.033Z,22.29
2023-10-11T11:58:46.565Z,22.29
2023-10-11T11:59:48.931Z,22.31
2023-10-11T12:01:10.245Z,22.33
2023-10-11T12:02:18.901Z,22.35
2023-10-11T12:03:24.781Z,22.37
2023-10-11T12:04:30.734Z,22.39
2023-10-11T12:05:38.361Z,22.41
2023-10-11T12:06:41.537Z,22.43
2023-10-11T12:07:44.533Z,22.44
2023-10-11T12:08:46.995Z,22.46
2023-10-11T12:10:03.455Z,22.47
2023-10-11T12:11:06.497Z,22.49
2023-10-11T12:12:08.810Z,22.52
2023-10-11T12:13:11.936Z,22.54
2023-10-11T12:14:15.676Z,22.55
2023-10-11T12:15:18.438Z,22.58
2023-10-11T12:16:24.090Z,22.59
2023-10-11T12:17:27.056Z,22.61
2023-10-11T12:18:34.675Z,22.63
2023-10-11T12:19:37.206Z,22.65
2023-10-11T12:20:41.052Z,22.66
2023-10-11T12:21:43.448Z,22.68
2023-10-11T12:22:46.823Z,22.70
2023-10-11T12:23:49.186Z,22.71
2023-10-11T12:24:53.346Z,22.71
2023-10-11T12:25:55.779Z,22.71
2023-10-11T12:27:00.379Z,22.71
2023-10-11T12:28:05.232Z,22.71
2023-10-11T12:29:10.173Z,22.72
2023-10-11T12:30:21.104Z,22.73
2023-10-11T12:31:24.811Z,22.73
2023-10-11T12:32:28.080Z,22.74
2023-10-11T12:33:32.154Z,22.75
2023-10-11T12:34:34.566Z,22.76
2023-10-11T12:35:41.227Z,22.76
2023-10-11T12:36:43.833Z,22.77
2023-10-11T12:37:47.057Z,22.77
2023-10-11T12:38:50.430Z,22.79
2023-10-11T12:39:55.049Z,22.80
2023-10-11T12:41:00.394Z,22.83
2023-10-11T12:42:03.595Z,22.83
2023-10-11T12:43:08.701Z,22.82
2023-10-11T12:44:13.600Z,22.82
2023-10-11T12:45:18.658Z,22.82
2023-10-11T12:46:22.180Z,22.83
2023-10-11T12:47:24.429Z,22.85
2023-10-11T12:48:27.689Z,22.86
2023-10-11T12:49:29.984Z,22.88
2023-10-11T12:50:38.042Z,22.89
2023-10-11T12:51:40.295Z,22.89
2023-10-11T12:52:43.679Z,22.91
2023-10-11T12:53:46.220Z,22.92
2023-10-11T12:54:52.523Z,22.93
2023-10-11T12:55:54.761Z,22.95
2023-10-11T12:56:58.200Z,22.97
2023-10-11T12:58:00.435Z,22.99
2023-10-11T12:59:03.882Z,22.99
2023-10-11T13:00:16.455Z,23.00
2023-10-11T13:01:27.325Z,23.01
2023-10-11T13:02:35.348Z,23.03
2023-10-11T13:03:40.053Z,23.07
2023-10-11T13:04:48.664Z,23.10
2023-10-11T13:05:53.465Z,23.12
2023-10-11T13:06:55.651Z,23.13
2023-10-11T13:08:00.415Z,23.16
2023-10-11T13:09:06.135Z,23.18
2023-10-11T13:10:08.720Z,23.20
2023-10-11T13:11:14.181Z,23.23
2023-10-11T13:12:19.365Z,23.25
2023-10-11T13:13:23.629Z,23.29
2023-10-11T13:14:26.186Z,23.32
2023-10-11T13:15:28.951Z,23.36
2023-10-11T13:16:34.169Z,23.39
2023-10-11T13:17:41.603Z,23.41
2023-10-11T13:18:46.813Z,23.44
2023-10-11T13:19:52.342Z,23.46
2023-10-11T13:20:56.744Z,23.48
2023-10-11T13:21:59.530Z,23.51
2023-10-11T13:23:02.701Z,23.53
2023-10-11T13:24:09.739Z,23.55
2023-10-11T13:25:33.310Z,23.56
2023-10-11T13:26:37.524Z,23.58
2023-10-11T13:27:41.116Z,23.60
2023-10-11T13:28:47.861Z,23.63
2023-10-11T13:29:51.392Z,23.65
2023-10-11T13:30:54.686Z,23.67
2023-10-11T13:32:00.124Z,23.70
2023-10-11T13:33:02.405Z,23.72
2023-10-11T13:34:07.070Z,23.74
2023-10-11T13:35:13.285Z,23.77
2023-10-11T13:36:16.540Z,23.78
2023-10-11T13:37:21.577Z,23.80
2023-10-11T13:38:26.012Z,23.82
2023-10-11T13:39:28.767Z,23.83
2023-10-11T13:40:33.459Z,23.83
2023-10-11T13:41:35.662Z,23.82
2023-10-11T13:42:39.347Z,23.82
2023-10-11T13:43:41.942Z,23.83
2023-10-11T13:44:45.832Z,23.83
2023-10-11T13:45:48.495Z,23.83
2023-10-11T13:46:54.363Z,23.83
2023-10-11T13:47:59.155Z,23.83
2023-10-11T13:49:21.965Z,23.84
2023-10-11T13:50:31.145Z,23.84
2023-10-11T13:51:36.554Z,23.85
2023-10-11T13:52:38.762Z,23.85
2023-10-11T13:53:42.803Z,23.84
2023-10-11T13:54:50.746Z,23.84
2023-10-11T13:55:53.525Z,23.85
2023-10-11T13:56:55.642Z,23.85
2023-10-11T13:57:58.757Z,23.86
2023-10-11T13:59:04.003Z,23.85
2023-10-11T14:00:39.608Z,23.83
2023-10-11T14:02:00.450Z,23.82
2023-10-11T14:03:40.456Z,23.80
2023-10-11T14:04:58.106Z,23.81
2023-10-11T14:06:21.718Z,23.80
2023-10-11T14:07:28.435Z,23.80
2023-10-11T14:08:41.346Z,23.80
2023-10-11T14:09:46.997Z,23.82
2023-10-11T14:10:49.226Z,23.83
2023-10-11T14:11:52.364Z,23.84
2023-10-11T14:12:57.860Z,23.85
2023-10-11T14:14:01.663Z,23.85
2023-10-11T14:15:08.232Z,23.84
2023-10-11T14:16:15.388Z,23.84
2023-10-11T14:17:17.601Z,23.86
2023-10-11T14:18:22.339Z,23.86
2023-10-11T14:19:26.320Z,23.86
2023-10-11T14:20:31.931Z,23.84
2023-10-11T14:21:38.040Z,23.83
2023-10-11T14:22:44.382Z,23.79
2023-10-11T14:23:47.273Z,23.77
2023-10-11T14:24:49.893Z,23.74